Time;durP1;ratioP1;P1;durP2;ratioP2;P2;SDS_P1;SDS_P2;PMS_P1;PMS_P2;Temp;Humidity;BMP_temperature;BMP_pressure;BME280_temperature;BME280_humidity;BME280_pressure;Samples;Min_cycle;Max_cycle;Signal;HPM_P1;HPM_P2
2024/02/11 00:01:15;;;;;;;38.45;20.13;;;;;;;8.56;100.00;96096.38;5044031;28;20032;-52
2024/02/11 00:03:41;;;;;;;41.13;20.60;;;;;;;8.49;100.00;96088.53;5036071;28;20108;-52
2024/02/11 00:06:08;;;;;;;41.40;20.65;;;;;;;8.58;100.00;96101.53;5031030;28;20034;-52
2024/02/11 00:08:35;;;;;;;36.83;20.98;;;;;;;8.60;100.00;96094.00;5038206;28;20037;-52
2024/02/11 00:11:01;;;;;;;47.83;21.85;;;;;;;8.58;100.00;96094.25;5023829;28;20025;-52
2024/02/11 00:13:28;;;;;;;42.42;21.77;;;;;;;8.54;100.00;96098.53;5040044;28;20033;-51
2024/02/11 00:15:54;;;;;;;38.47;20.70;;;;;;;8.38;100.00;96104.81;5038605;28;20393;-52
2024/02/11 00:18:24;;;;;;;41.42;20.92;;;;;;;8.36;100.00;96107.78;5029697;28;20029;-52
2024/02/11 00:20:51;;;;;;;40.45;20.25;;;;;;;8.30;100.00;96104.22;5043755;28;20433;-51
2024/02/11 00:23:16;;;;;;;42.33;20.50;;;;;;;8.26;100.00;96113.88;5045597;28;20053;-52
2024/02/11 00:25:41;;;;;;;40.88;22.35;;;;;;;8.26;100.00;96113.88;5040862;28;20059;-52
2024/02/11 00:28:08;;;;;;;40.40;22.35;;;;;;;8.32;100.00;96114.75;5042825;28;20028;-52
2024/02/11 00:30:37;;;;;;;42.67;21.95;;;;;;;8.39;100.00;96122.63;5044310;28;20037;-52
2024/02/11 00:33:04;;;;;;;44.90;22.30;;;;;;;8.46;100.00;96132.16;5039757;28;20056;-52
2024/02/11 00:35:29;;;;;;;45.17;21.60;;;;;;;8.50;100.00;96135.16;5040761;28;20071;-52
2024/02/11 00:37:55;;;;;;;41.47;21.73;;;;;;;8.53;100.00;96130.03;5040777;28;20045;-52
2024/02/11 00:40:21;;;;;;;46.53;21.30;;;;;;;8.56;100.00;96131.41;5045816;28;20120;-52
2024/02/11 00:42:46;;;;;;;46.80;21.58;;;;;;;8.55;100.00;96121.72;5040332;28;20068;-51
2024/02/11 00:45:12;;;;;;;43.20;21.45;;;;;;;8.61;100.00;96122.56;5034901;28;20080;-51
2024/02/11 00:47:40;;;;;;;44.15;21.70;;;;;;;8.63;100.00;96128.53;5037954;28;20029;-51
2024/02/11 00:50:07;;;;;;;42.67;21.48;;;;;;;8.63;100.00;96129.34;5047348;28;20020;-51
2024/02/11 00:52:32;;;;;;;40.63;22.33;;;;;;;8.66;100.00;96133.41;5040290;28;20033;-51
2024/02/11 00:54:57;;;;;;;43.63;20.67;;;;;;;8.64;100.00;96130.13;5042907;28;20377;-51
2024/02/11 00:57:24;;;;;;;41.55;21.65;;;;;;;8.62;100.00;96138.50;5042387;28;20499;-51
2024/02/11 00:59:50;;;;;;;40.50;20.80;;;;;;;8.61;100.00;96141.44;5046746;28;20503;-51
2024/02/11 01:02:15;;;;;;;39.45;20.90;;;;;;;8.62;100.00;96140.34;5043613;28;20036;-51
2024/02/11 01:04:41;;;;;;;42.72;21.52;;;;;;;8.61;100.00;96136.03;5040467;28;20033;-51
2024/02/11 01:07:06;;;;;;;51.35;23.33;;;;;;;8.62;100.00;96143.06;5032449;28;20477;-51
2024/02/11 01:09:33;;;;;;;45.95;23.15;;;;;;;8.59;100.00;96139.00;5036869;28;20064;-51
2024/02/11 01:11:58;;;;;;;47.30;23.95;;;;;;;8.60;100.00;96148.72;5043064;28;20020;-52
2024/02/11 01:14:24;;;;;;;49.38;22.50;;;;;;;8.54;100.00;96147.84;5035790;28;20030;-52
2024/02/11 01:16:50;;;;;;;39.13;21.63;;;;;;;8.54;100.00;96155.94;5032837;28;20112;-51
2024/02/11 01:19:15;;;;;;;46.80;22.80;;;;;;;8.55;100.00;96156.75;5044715;28;20524;-51
2024/02/11 01:21:41;;;;;;;39.78;20.85;;;;;;;8.52;100.00;96155.38;5048305;28;20128;-51
2024/02/11 01:24:07;;;;;;;46.63;22.25;;;;;;;8.50;100.00;96162.91;5031422;28;20033;-51
2024/02/11 01:26:36;;;;;;;48.10;22.73;;;;;;;8.50;100.00;96162.09;5039177;28;20078;-51
2024/02/11 01:29:04;;;;;;;48.38;22.45;;;;;;;8.43;100.00;96164.16;5039299;28;20021;-51
2024/02/11 01:31:29;;;;;;;41.80;22.52;;;;;;;8.45;100.00;96170.94;5040626;28;20397;-52
2024/02/11 01:33:55;;;;;;;45.65;23.70;;;;;;;8.48;100.00;96175.81;5038095;28;20063;-52
2024/02/11 01:36:20;;;;;;;50.47;22.45;;;;;;;8.48;100.00;96170.41;5017778;28;20064;-52
2024/02/11 01:38:46;;;;;;;48.35;22.02;;;;;;;8.48;100.00;96169.59;5041378;28;20108;-52
2024/02/11 01:41:12;;;;;;;45.17;21.90;;;;;;;8.47;100.00;96178.78;5042414;28;20033;-51
2024/02/11 01:43:37;;;;;;;46.40;23.00;;;;;;;8.44;100.00;96188.19;5025186;28;20060;-51
2024/02/11 01:46:04;;;;;;;46.53;23.35;;;;;;;8.43;100.00;96188.41;5043026;28;20396;-52
2024/02/11 01:48:30;;;;;;;45.60;21.90;;;;;;;8.47;100.00;96184.97;5042316;28;20025;-52
2024/02/11 01:51:01;;;;;;;45.53;22.58;;;;;;;-144.78;100.00;64918.72;5020402;28;20070;-52
2024/02/11 01:53:36;;;;;;;51.33;23.88;;;;;;;8.50;100.00;96189.03;5036634;28;20041;-52
2024/02/11 01:56:03;;;;;;;45.95;22.67;;;;;;;8.51;100.00;96188.78;5027424;28;20082;-52
2024/02/11 01:58:31;;;;;;;44.33;22.20;;;;;;;8.54;100.00;96195.53;5038007;28;20021;-52
2024/02/11 02:00:56;;;;;;;47.85;20.35;;;;;;;8.61;100.00;96179.97;5029028;28;20033;-52
2024/02/11 02:03:24;;;;;;;46.80;22.30;;;;;;;8.59;100.00;96167.81;5033357;28;20389;-52
2024/02/11 02:05:51;;;;;;;38.75;20.58;;;;;;;8.67;100.00;96173.59;5033897;28;20056;-52
2024/02/11 02:08:17;;;;;;;46.05;20.77;;;;;;;8.74;100.00;96179.56;5024484;28;20385;-52
2024/02/11 02:10:44;;;;;;;40.92;19.52;;;;;;;8.70;100.00;96180.34;5037172;28;20029;-52
2024/02/11 02:13:09;;;;;;;41.38;19.65;;;;;;;8.71;100.00;96184.66;5042392;28;20032;-52
2024/02/11 02:15:35;;;;;;;41.30;20.55;;;;;;;8.69;100.00;96181.41;5031844;28;20078;-52
2024/02/11 02:18:00;;;;;;;43.30;20.38;;;;;;;8.67;100.00;96184.38;5021444;28;20032;-52
2024/02/11 02:20:26;;;;;;;41.13;20.85;;;;;;;8.69;100.00;96179.50;5041553;28;20037;-52
2024/02/11 02:22:51;;;;;;;39.17;20.05;;;;;;;8.69;100.00;96182.19;5034798;28;20064;-52
2024/02/11 02:25:16;;;;;;;44.38;21.00;;;;;;;8.69;100.00;96192.19;5031636;28;20469;-52
2024/02/11 02:27:43;;;;;;;45.20;20.58;;;;;;;8.69;100.00;96178.69;5023505;28;20033;-52
2024/02/11 02:30:09;;;;;;;40.75;20.50;;;;;;;8.68;100.00;96196.75;5019786;28;20489;-52
2024/02/11 02:32:34;;;;;;;46.00;19.65;;;;;;;8.66;100.00;96180.03;5034897;28;20037;-52
2024/02/11 02:35:00;;;;;;;41.95;20.90;;;;;;;8.65;100.00;96193.78;5035785;28;20037;-52
2024/02/11 02:37:26;;;;;;;40.95;21.27;;;;;;;8.66;100.00;96192.69;5017155;28;20664;-52
2024/02/11 02:39:51;;;;;;;43.83;21.02;;;;;;;8.63;100.00;96188.63;5022808;28;20029;-53
2024/02/11 02:42:17;;;;;;;43.85;21.65;;;;;;;8.66;100.00;96181.91;5037159;28;20107;-52
2024/02/11 02:44:43;;;;;;;43.08;21.15;;;;;;;8.70;100.00;96193.81;5038489;28;20602;-55
2024/02/11 02:47:11;;;;;;;46.38;21.42;;;;;;;8.64;100.00;96192.13;5034226;28;20024;-55
2024/02/11 02:49:37;;;;;;;44.92;21.30;;;;;;;8.66;100.00;96195.38;5023140;28;20155;-55
2024/02/11 02:52:02;;;;;;;42.80;20.77;;;;;;;8.67;100.00;96189.75;5033404;28;20108;-55
2024/02/11 02:54:28;;;;;;;38.88;19.77;;;;;;;8.69;100.00;96200.25;5028594;28;20044;-55
2024/02/11 02:56:54;;;;;;;44.90;20.98;;;;;;;8.68;100.00;96201.34;5029879;28;20100;-55
2024/02/11 02:59:20;;;;;;;47.97;22.30;;;;;;;8.70;100.00;96215.38;5042754;28;20071;-55
2024/02/11 03:04:39;;;;;;;9.18;4.85;;;;;;;8.39;100.00;96198.91;5042081;28;20367;-74
2024/02/11 03:07:06;;;;;;;3.78;1.70;;;;;;;8.27;100.00;96195.50;5031219;28;20029;-74
2024/02/11 03:09:31;;;;;;;1.75;0.80;;;;;;;8.08;100.00;96185.06;5036839;28;20044;-77
2024/02/11 03:11:57;;;;;;;0.82;0.52;;;;;;;8.03;100.00;96178.81;5057448;28;20328;-77
2024/02/11 03:14:22;;;;;;;1.00;0.57;;;;;;;7.95;100.00;96201.59;5043375;28;20028;-74
2024/02/11 03:16:49;;;;;;;1.25;0.60;;;;;;;8.01;100.00;96214.03;5026248;28;20071;-77
2024/02/11 03:19:15;;;;;;;0.70;0.40;;;;;;;7.93;100.00;96232.53;5033327;28;20025;-77
2024/02/11 03:21:40;;;;;;;0.40;0.20;;;;;;;7.95;100.00;96231.22;5047549;28;20030;-76
2024/02/11 03:24:07;;;;;;;0.20;0.20;;;;;;;7.71;100.00;96219.06;5050643;28;20021;-76
2024/02/11 03:26:33;;;;;;;0.20;0.20;;;;;;;7.81;100.00;96233.47;5027768;28;20029;-76
2024/02/11 03:29:00;;;;;;;0.32;0.17;;;;;;;7.74;100.00;96234.69;5027543;28;20022;-76
2024/02/11 03:31:27;;;;;;;0.20;0.10;;;;;;;7.68;100.00;96240.00;5049715;28;20021;-75
2024/02/11 03:33:52;;;;;;;0.43;0.10;;;;;;;7.60;100.00;96240.44;5036816;28;20324;-75
2024/02/11 03:36:18;;;;;;;0.57;0.10;;;;;;;7.67;100.00;96251.81;5033430;28;20096;-76
2024/02/11 03:38:43;;;;;;;0.13;0.13;;;;;;;7.56;100.00;96262.69;5047962;28;20335;-74
2024/02/11 03:41:08;;;;;;;0.10;0.10;;;;;;;7.57;100.00;96265.16;5048225;28;20622;-76
2024/02/11 03:43:34;;;;;;;0.10;0.10;;;;;;;7.52;100.00;96262.38;5027656;28;20108;-76
2024/02/11 03:46:00;;;;;;;0.13;0.10;;;;;;;7.44;100.00;96266.31;5026694;28;20057;-76
2024/02/11 03:48:25;;;;;;;0.30;0.10;;;;;;;7.43;100.00;96274.59;5036309;28;20063;-74
2024/02/11 03:50:51;;;;;;;0.30;0.10;;;;;;;7.32;100.00;96281.69;5042314;28;20160;-74
2024/02/11 03:53:18;;;;;;;0.05;0.05;;;;;;;7.39;100.00;96281.56;5034670;28;20216;-76
2024/02/11 03:55:45;;;;;;;0.20;0.20;;;;;;;6.98;100.00;96267.44;5030976;28;20024;-76
2024/02/11 03:58:12;;;;;;;0.75;0.20;;;;;;;7.03;100.00;96287.16;5033751;28;20040;-76
2024/02/11 04:00:37;;;;;;;0.80;0.20;;;;;;;7.03;100.00;96289.03;5035012;28;20061;-76
2024/02/11 04:03:03;;;;;;;1.25;0.20;;;;;;;7.06;100.00;96299.28;5030631;28;20028;-74
2024/02/11 04:05:28;;;;;;;0.32;0.28;;;;;;;7.09;100.00;96325.69;5039780;28;20043;-75
2024/02/11 04:07:55;;;;;;;0.28;0.28;;;;;;;7.06;100.00;96323.47;5042428;28;20021;-75
2024/02/11 04:10:28;;;;;;;0.65;0.40;;;;;;;6.84;100.00;96301.88;5025884;28;20021;-75
2024/02/11 04:12:54;;;;;;;0.77;0.50;;;;;;;6.86;100.00;96325.78;5033872;28;20022;-75
2024/02/11 04:15:22;;;;;;;1.00;0.40;;;;;;;6.80;100.00;96320.31;5028661;28;20017;-75
2024/02/11 04:17:53;;;;;;;2.33;0.40;;;;;;;6.73;100.00;96306.25;5027951;28;20251;-74
2024/02/11 04:20:27;;;;;;;1.08;0.68;;;;;;;6.78;100.00;96329.69;5025550;28;20030;-74
2024/02/11 04:23:00;;;;;;;2.30;0.65;;;;;;;6.48;100.00;96298.50;5017322;28;20060;-74
2024/02/11 04:25:29;;;;;;;1.50;0.80;;;;;;;6.80;100.00;96333.75;5021320;28;20089;-76
2024/02/11 04:27:54;;;;;;;1.30;0.70;;;;;;;6.51;100.00;96316.81;5021882;28;20116;-74
2024/02/11 04:30:20;;;;;;;1.60;0.80;;;;;;;6.43;100.00;96294.91;5025313;28;20322;-74
2024/02/11 04:32:47;;;;;;;2.47;1.10;;;;;;;6.50;100.00;96312.50;5025918;28;20351;-75
2024/02/11 04:35:14;;;;;;;1.75;1.17;;;;;;;6.65;100.00;96335.34;5025414;28;20194;-74
2024/02/11 04:37:46;;;;;;;3.55;1.50;;;;;;;6.63;100.00;96335.59;5031081;28;20033;-74
2024/02/11 04:40:12;;;;;;;4.85;1.40;;;;;;;6.72;100.00;96346.78;5035913;28;20385;-74
2024/02/11 04:42:42;;;;;;;3.72;1.40;;;;;;;6.62;100.00;96350.06;5049966;28;20029;-75
2024/02/11 04:45:08;;;;;;;3.58;1.20;;;;;;;6.67;100.00;96344.00;5037151;28;20219;-75
2024/02/11 04:47:35;;;;;;;3.63;1.40;;;;;;;6.67;100.00;96355.53;5054136;28;20108;-75
2024/02/11 04:50:04;;;;;;;3.50;1.63;;;;;;;6.44;100.00;96344.88;5030855;28;20021;-76
2024/02/11 04:52:29;;;;;;;2.80;0.98;;;;;;;6.44;100.00;96342.19;5036273;28;20312;-75
2024/02/11 04:54:56;;;;;;;2.90;1.40;;;;;;;6.40;100.00;96357.16;5031544;28;20100;-75
2024/02/11 04:57:22;;;;;;;5.22;2.10;;;;;;;6.48;100.00;96362.16;5033440;28;20127;-75
2024/02/11 04:59:47;;;;;;;3.95;2.13;;;;;;;6.38;100.00;96351.19;5035066;28;20033;-75
2024/02/11 05:02:13;;;;;;;3.63;1.40;;;;;;;6.42;100.00;96371.97;5036008;28;20025;-74
2024/02/11 05:04:42;;;;;;;3.63;2.38;;;;;;;6.38;100.00;96373.50;5034587;28;20036;-76
2024/02/11 05:07:08;;;;;;;4.32;2.00;;;;;;;6.20;100.00;96370.94;5039394;28;20031;-75
2024/02/11 05:09:37;;;;;;;4.03;1.90;;;;;;;6.25;100.00;96373.75;5035308;28;20262;-74
2024/02/11 05:12:07;;;;;;;3.53;1.83;;;;;;;6.38;100.00;96389.59;5040041;28;20022;-74
2024/02/11 05:14:34;;;;;;;2.95;1.48;;;;;;;6.38;100.00;96389.59;5031769;28;20039;-74
2024/02/11 05:17:02;;;;;;;4.32;2.05;;;;;;;6.27;100.00;96387.75;5033344;28;20025;-74
2024/02/11 05:19:30;;;;;;;3.00;1.45;;;;;;;6.26;100.00;96396.84;5031991;28;20014;-74
2024/02/11 05:21:55;;;;;;;3.67;1.60;;;;;;;6.06;100.00;96381.94;5028425;28;20021;-75
2024/02/11 05:24:21;;;;;;;3.45;1.48;;;;;;;6.06;100.00;96381.94;5036666;28;20024;-75
2024/02/11 05:26:46;;;;;;;3.28;1.20;;;;;;;6.15;100.00;96387.75;5042378;28;20021;-75
2024/02/11 05:29:11;;;;;;;4.20;1.50;;;;;;;6.17;100.00;96388.34;5032855;28;20017;-74
2024/02/11 05:31:37;;;;;;;2.67;1.42;;;;;;;6.12;100.00;96401.66;5029591;28;20013;-75
2024/02/11 05:34:05;;;;;;;2.83;1.80;;;;;;;6.24;100.00;96404.34;5033791;28;20021;-74
2024/02/11 05:36:31;;;;;;;2.17;1.40;;;;;;;6.16;100.00;96394.78;5033975;28;20017;-76
2024/02/11 05:38:57;;;;;;;2.88;1.67;;;;;;;6.14;100.00;96400.38;5038759;28;20021;-75
2024/02/11 05:41:23;;;;;;;2.78;1.75;;;;;;;6.12;100.00;96402.47;5031697;28;20053;-74
2024/02/11 05:43:48;;;;;;;3.08;1.40;;;;;;;6.27;100.00;96425.34;5033357;28;20032;-75
2024/02/11 05:46:14;;;;;;;3.35;1.80;;;;;;;6.17;100.00;96417.06;5034032;28;20021;-74
2024/02/11 05:48:40;;;;;;;2.30;1.27;;;;;;;6.20;100.00;96416.59;5025246;28;20032;-75
2024/02/11 05:51:05;;;;;;;2.65;1.45;;;;;;;6.17;100.00;96417.88;5024109;28;20120;-75
2024/02/11 05:53:30;;;;;;;3.25;1.40;;;;;;;6.19;100.00;96423.84;5037981;28;20020;-74
2024/02/11 05:55:57;;;;;;;3.05;1.23;;;;;;;6.21;100.00;96435.16;5037899;28;20074;-74
2024/02/11 05:58:23;;;;;;;3.25;1.75;;;;;;;6.09;100.00;96435.16;5037940;28;20079;-72
2024/02/11 06:00:49;;;;;;;4.05;2.03;;;;;;;6.06;100.00;96438.31;5034122;28;20045;-72
2024/02/11 06:03:20;;;;;;;3.28;1.52;;;;;;;5.99;100.00;96434.91;5037754;28;20131;-72
2024/02/11 06:05:49;;;;;;;3.38;1.33;;;;;;;6.04;100.00;96442.28;5037217;28;20057;-72
2024/02/11 06:08:15;;;;;;;3.95;1.40;;;;;;;5.95;100.00;96436.44;5029204;28;20232;-71
2024/02/11 06:10:41;;;;;;;4.85;1.85;;;;;;;6.03;100.00;96446.81;5037350;28;20021;-73
2024/02/11 06:13:08;;;;;;;2.83;1.50;;;;;;;5.97;100.00;96436.19;5025938;28;20048;-71
2024/02/11 06:15:37;;;;;;;3.22;1.77;;;;;;;6.10;100.00;96462.81;5023637;28;20084;-71
2024/02/11 06:18:02;;;;;;;3.45;1.50;;;;;;;6.00;100.00;96452.66;5028284;28;20021;-74
2024/02/11 06:20:29;;;;;;;3.28;1.70;;;;;;;6.08;100.00;96468.41;5030997;28;20114;-74
2024/02/11 06:22:55;;;;;;;3.22;1.52;;;;;;;6.03;100.00;96459.44;5028912;28;20039;-74
2024/02/11 06:25:24;;;;;;;4.30;1.83;;;;;;;6.14;100.00;96488.16;5030263;28;20021;-74
2024/02/11 06:27:51;;;;;;;3.22;2.00;;;;;;;6.05;100.00;96490.38;5032297;28;20024;-75
2024/02/11 06:30:17;;;;;;;6.18;2.03;;;;;;;5.87;100.00;96475.13;5029359;28;20216;-74
2024/02/11 06:32:45;;;;;;;3.40;1.95;;;;;;;5.82;100.00;96477.69;5023296;28;20100;-74
2024/02/11 06:35:11;;;;;;;3.60;2.10;;;;;;;5.89;100.00;96482.94;5032921;28;20029;-74
2024/02/11 06:37:38;;;;;;;4.63;1.65;;;;;;;5.97;100.00;96505.97;5039232;28;20028;-74
2024/02/11 06:40:06;;;;;;;2.70;1.67;;;;;;;5.78;100.00;96479.19;5046368;28;20104;-74
2024/02/11 06:42:33;;;;;;;3.80;2.30;;;;;;;5.89;100.00;96499.88;5025194;28;20021;-74
2024/02/11 06:44:59;;;;;;;6.05;2.13;;;;;;;5.82;100.00;96496.47;5044528;28;20025;-77
2024/02/11 06:47:24;;;;;;;3.67;2.35;;;;;;;5.92;100.00;96499.41;5022522;28;20018;-77
2024/02/11 06:49:50;;;;;;;7.63;2.90;;;;;;;5.98;100.00;96521.84;5024931;28;20029;-76
2024/02/11 06:52:16;;;;;;;5.97;2.60;;;;;;;5.85;100.00;96496.00;5021963;28;20037;-76
2024/02/11 06:54:42;;;;;;;3.92;2.40;;;;;;;5.95;100.00;96503.53;5031975;28;20036;-76
2024/02/11 06:57:09;;;;;;;3.33;1.92;;;;;;;5.89;100.00;96515.13;5042257;28;20025;-75
2024/02/11 06:59:35;;;;;;;3.20;1.80;;;;;;;5.88;100.00;96519.69;5029910;28;20039;-75
2024/02/11 07:02:04;;;;;;;4.05;1.40;;;;;;;5.91;100.00;96518.41;5044625;28;20033;-76
2024/02/11 07:04:32;;;;;;;3.60;1.63;;;;;;;5.74;100.00;96502.16;5030852;28;20028;-76
2024/02/11 07:06:59;;;;;;;2.97;1.85;;;;;;;5.86;100.00;96518.28;5032691;28;20435;-75
2024/02/11 07:09:24;;;;;;;3.63;1.60;;;;;;;6.01;100.00;96542.84;5035478;28;20092;-78
2024/02/11 07:11:49;;;;;;;4.40;2.15;;;;;;;5.74;100.00;96499.50;5027030;28;20085;-76
2024/02/11 07:14:15;;;;;;;6.03;2.28;;;;;;;5.88;100.00;96517.00;5035639;28;20335;-75
2024/02/11 07:16:43;;;;;;;4.90;2.60;;;;;;;5.98;100.00;96531.78;5026092;28;20067;-76
2024/02/11 07:19:09;;;;;;;4.32;2.17;;;;;;;6.03;100.00;96531.91;5050133;28;20088;-75
2024/02/11 07:21:39;;;;;;;5.40;2.42;;;;;;;6.16;100.00;96542.44;5036143;28;20021;-75
2024/02/11 07:24:06;;;;;;;6.40;2.70;;;;;;;6.23;100.00;96553.06;5023370;28;20172;-76
2024/02/11 07:26:32;;;;;;;3.75;2.40;;;;;;;6.16;100.00;96547.81;5023888;28;20071;-72
2024/02/11 07:28:57;;;;;;;4.80;1.95;;;;;;;6.13;100.00;96554.44;5018237;28;20209;-72
2024/02/11 07:31:22;;;;;;;2.38;1.15;;;;;;;6.05;100.00;96549.41;5039305;28;20021;-75
2024/02/11 07:33:49;;;;;;;6.05;2.20;;;;;;;6.09;100.00;96568.56;5029041;28;20029;-75
2024/02/11 07:36:15;;;;;;;4.95;2.95;;;;;;;6.08;100.00;96561.56;5049481;28;20025;-76
2024/02/11 07:38:41;;;;;;;3.88;2.10;;;;;;;6.08;100.00;96583.03;5041560;28;20040;-75
2024/02/11 07:41:07;;;;;;;5.18;2.50;;;;;;;5.97;100.00;96565.81;5026918;28;20025;-77
2024/02/11 07:43:32;;;;;;;4.88;2.55;;;;;;;5.97;100.00;96581.13;5042242;28;20029;-73
2024/02/11 07:46:00;;;;;;;3.95;2.33;;;;;;;5.91;100.00;96567.53;5036016;28;20017;-77
2024/02/11 07:48:25;;;;;;;3.60;2.50;;;;;;;5.91;100.00;96567.53;5022436;28;20108;-75
2024/02/11 07:50:51;;;;;;;4.45;2.50;;;;;;;5.91;100.00;96567.53;5029813;28;20316;-75
2024/02/11 07:53:18;;;;;;;2.92;1.52;;;;;;;5.98;100.00;96583.59;5034675;28;20305;-75
2024/02/11 07:55:43;;;;;;;2.53;1.25;;;;;;;6.06;100.00;96595.88;5038161;28;20333;-78
2024/02/11 07:58:08;;;;;;;3.33;1.60;;;;;;;6.10;100.00;96594.34;5029495;28;20025;-71
2024/02/11 08:00:34;;;;;;;3.08;1.45;;;;;;;6.09;100.00;96596.22;5042104;28;20029;-78
2024/02/11 08:02:59;;;;;;;3.38;1.50;;;;;;;5.99;100.00;96579.03;5025252;28;20017;-76
2024/02/11 08:05:24;;;;;;;4.18;1.40;;;;;;;5.96;100.00;96576.81;5025798;28;20068;-76
2024/02/11 08:07:51;;;;;;;3.72;2.17;;;;;;;5.97;100.00;96584.59;5023624;28;20047;-77
2024/02/11 08:10:16;;;;;;;4.43;2.55;;;;;;;6.10;100.00;96602.41;5035329;28;20021;-83
2024/02/11 08:12:41;;;;;;;4.20;1.63;;;;;;;6.00;100.00;96589.56;5027813;28;20025;-80
2024/02/11 08:15:12;;;;;;;2.67;1.50;;;;;;;5.93;100.00;96583.41;5037600;28;20076;-78
2024/02/11 08:17:40;;;;;;;2.65;1.33;;;;;;;6.07;100.00;96608.22;5031916;28;20029;-74
2024/02/11 08:20:06;;;;;;;2.23;1.37;;;;;;;6.15;100.00;96610.56;5029241;28;20063;-77
2024/02/11 08:22:34;;;;;;;2.42;1.38;;;;;;;6.06;100.00;96599.34;5033073;28;20064;-76
2024/02/11 08:24:59;;;;;;;2.88;1.55;;;;;;;6.08;100.00;96591.09;5031522;28;20096;-74
2024/02/11 08:27:24;;;;;;;3.35;1.92;;;;;;;6.14;100.00;96599.03;5029921;28;20028;-74
2024/02/11 08:29:52;;;;;;;2.05;1.35;;;;;;;6.35;100.00;96615.66;5047296;28;20048;-75
2024/02/11 08:32:17;;;;;;;2.67;1.40;;;;;;;6.19;100.00;96590.28;5023578;28;20224;-74
2024/02/11 08:34:42;;;;;;;4.28;1.50;;;;;;;6.24;100.00;96587.75;5028148;28;20033;-75
2024/02/11 08:37:08;;;;;;;2.63;1.65;;;;;;;6.23;100.00;96591.44;5050571;28;20017;-74
2024/02/11 08:39:33;;;;;;;2.75;1.65;;;;;;;6.32;100.00;96590.09;5033083;28;20063;-75
2024/02/11 08:42:04;;;;;;;3.20;1.80;;;;;;;6.39;100.00;96589.16;5040933;28;20033;-75
2024/02/11 08:44:30;;;;;;;3.63;1.73;;;;;;;6.49;100.00;96587.53;5046566;28;20033;-72
2024/02/11 08:46:56;;;;;;;4.47;1.83;;;;;;;6.64;100.00;96613.94;5044352;28;20029;-72
2024/02/11 08:49:21;;;;;;;3.88;1.83;;;;;;;6.58;100.00;96601.47;5043539;28;20021;-72
2024/02/11 08:51:47;;;;;;;2.58;1.52;;;;;;;6.66;100.00;96617.22;5051541;28;20057;-72
2024/02/11 08:54:12;;;;;;;2.70;1.55;;;;;;;6.91;100.00;96624.25;5032582;28;20028;-73
2024/02/11 08:56:39;;;;;;;2.10;1.30;;;;;;;6.69;100.00;96603.31;5052401;28;20024;-73
2024/02/11 08:59:06;;;;;;;3.85;1.63;;;;;;;6.74;100.00;96619.56;5052856;28;20029;-72
2024/02/11 09:01:31;;;;;;;5.13;1.80;;;;;;;6.66;100.00;96616.41;5038928;28;20197;-72
2024/02/11 09:03:59;;;;;;;3.42;1.77;;;;;;;6.70;100.00;96622.94;5043178;28;20045;-72
2024/02/11 09:06:28;;;;;;;5.45;1.70;;;;;;;6.90;100.00;96610.00;5040632;28;20021;-72
2024/02/11 09:08:54;;;;;;;7.90;2.78;;;;;;;7.18;100.00;96627.28;5041190;28;20043;-72
2024/02/11 09:11:19;;;;;;;3.20;1.77;;;;;;;7.07;100.00;96622.72;5041327;28;21153;-72
2024/02/11 09:13:45;;;;;;;6.38;2.10;;;;;;;7.15;100.00;96628.59;5041553;28;20017;-72
2024/02/11 09:16:11;;;;;;;10.40;2.45;;;;;;;7.39;100.00;96633.94;5039181;28;20033;-73
2024/02/11 09:18:36;;;;;;;6.05;2.60;;;;;;;7.30;100.00;96638.03;5043057;28;20037;-72
2024/02/11 09:21:02;;;;;;;4.07;1.63;;;;;;;7.16;100.00;96640.16;5047438;28;20116;-72
2024/02/11 09:23:27;;;;;;;4.93;2.35;;;;;;;7.21;100.00;96627.63;5055875;28;20373;-77
2024/02/11 09:25:52;;;;;;;3.75;2.13;;;;;;;7.27;100.00;96617.81;5040696;28;20089;-80
2024/02/11 09:28:20;;;;;;;6.22;2.92;;;;;;;7.60;100.00;96637.88;5052696;28;20108;-78
2024/02/11 09:30:46;;;;;;;8.50;2.70;;;;;;;7.61;100.00;96613.41;5023549;28;20101;-77
2024/02/11 09:33:11;;;;;;;4.85;2.22;;;;;;;8.00;100.00;96645.13;5037406;28;20025;-86
2024/02/11 09:35:37;;;;;;;4.65;2.65;;;;;;;8.03;100.00;96636.56;5034353;28;20060;-85
2024/02/11 09:38:04;;;;;;;5.35;2.83;;;;;;;8.15;100.00;96649.97;5026396;28;20037;-68
2024/02/11 09:40:29;;;;;;;5.95;2.10;;;;;;;8.07;100.00;96617.00;5022648;28;20021;-70
2024/02/11 09:42:57;;;;;;;5.35;2.97;;;;;;;8.36;100.00;96633.13;5037149;28;20021;-70
2024/02/11 09:45:26;;;;;;;5.90;3.08;;;;;;;8.70;100.00;96633.19;5022847;28;20041;-69
2024/02/11 09:47:52;;;;;;;;;;;;;;;8.64;100.00;96629.59;5039635;28;20029;-68
2024/02/11 09:50:18;;;;;;;4.22;2.60;;;;;;;8.80;100.00;96625.25;5048336;28;19976;-69
2024/02/11 09:52:46;;;;;;;6.57;3.35;;;;;;;9.11;100.00;96626.53;5025915;28;20224;-69
2024/02/11 09:55:13;;;;;;;6.93;3.30;;;;;;;9.21;100.00;96621.28;5023499;28;20021;-69
2024/02/11 09:57:39;;;;;;;7.90;3.78;;;;;;;9.31;100.00;96622.50;5038039;28;20029;-68
2024/02/11 10:00:07;;;;;;;7.13;3.42;;;;;;;9.53;100.00;96638.72;5030843;28;20037;-69
2024/02/11 10:02:33;;;;;;;4.68;2.67;;;;;;;9.14;100.00;96622.53;5041020;28;20104;-69
2024/02/11 10:05:05;;;;;;;8.05;3.00;;;;;;;9.16;100.00;96636.59;5042470;28;20328;-69
2024/02/11 10:07:32;;;;;;;6.55;3.50;;;;;;;9.20;100.00;96643.16;5040589;28;20026;-67
2024/02/11 10:09:57;;;;;;;5.05;3.08;;;;;;;9.55;100.00;96631.19;5035876;28;20075;-69
2024/02/11 10:12:24;;;;;;;10.57;2.83;;;;;;;9.51;100.00;96635.44;5036353;28;20025;-69
2024/02/11 10:14:57;;;;;;;8.30;3.00;;;;;;;9.77;100.00;96615.84;5035124;28;20450;-67
2024/02/11 10:17:23;;;;;;;4.50;2.80;;;;;;;10.34;100.00;96638.06;5037787;28;20033;-67
2024/02/11 10:19:51;;;;;;;6.32;3.25;;;;;;;10.39;100.00;96630.03;5039848;28;20021;-67
2024/02/11 10:22:17;;;;;;;7.28;3.45;;;;;;;10.35;100.00;96635.13;5040153;28;20021;-69
2024/02/11 10:24:43;;;;;;;6.43;3.22;;;;;;;10.22;100.00;96630.91;5039000;28;20328;-68
2024/02/11 10:27:10;;;;;;;4.70;2.45;;;;;;;9.84;100.00;96634.53;5037125;28;20056;-71
2024/02/11 10:29:35;;;;;;;6.03;3.03;;;;;;;9.78;100.00;96655.25;5040725;28;20325;-69
2024/02/11 10:32:00;;;;;;;9.30;2.80;;;;;;;9.75;100.00;96639.56;5037682;28;20037;-69
2024/02/11 10:34:26;;;;;;;5.55;2.72;;;;;;;9.84;100.00;96662.34;5030473;28;20505;-69
2024/02/11 10:36:51;;;;;;;9.40;3.53;;;;;;;9.91;100.00;96661.38;5038575;28;20031;-73
2024/02/11 10:39:16;;;;;;;7.55;2.63;;;;;;;9.69;100.00;96648.66;5041219;28;20025;-71
2024/02/11 10:41:42;;;;;;;4.20;2.55;;;;;;;9.69;100.00;96661.34;5047065;28;20061;-71
2024/02/11 10:44:09;;;;;;;7.82;3.13;;;;;;;9.69;100.00;96658.63;5042650;28;20117;-73
2024/02/11 10:46:34;;;;;;;5.25;2.33;;;;;;;9.76;100.00;96649.28;5023716;28;20025;-71
2024/02/11 10:49:00;;;;;;;5.82;2.70;;;;;;;9.80;100.00;96653.13;5026724;28;20250;-72
2024/02/11 10:51:34;;;;;;;4.63;2.38;;;;;;;10.09;100.00;96663.75;5035876;28;20036;-70
2024/02/11 10:54:03;;;;;;;8.98;2.65;;;;;;;10.18;100.00;96654.09;5040188;28;20021;-71
2024/02/11 10:56:29;;;;;;;5.63;2.85;;;;;;;10.16;100.00;96650.81;5043694;28;20044;-69
2024/02/11 10:59:26;;;;;;;9.15;2.67;;;;;;;10.10;100.00;96659.94;5039958;28;20028;-74
2024/02/11 11:01:55;;;;;;;5.03;2.33;;;;;;;9.79;100.00;96664.16;5027920;28;20109;-68
2024/02/11 11:04:22;;;;;;;5.35;2.58;;;;;;;9.42;100.00;96665.56;5042871;28;20037;-78
2024/02/11 11:06:55;;;;;;;5.60;2.53;;;;;;;9.36;100.00;96671.16;5003516;23;1255885;-63
2024/02/11 11:09:22;;;;;;;4.88;2.40;;;;;;;9.38;100.00;96682.53;5051874;28;20025;-63
2024/02/11 11:12:07;;;;;;;6.82;2.50;;;;;;;9.53;100.00;96688.13;5051422;28;20025;-63
2024/02/11 11:14:33;;;;;;;7.07;2.40;;;;;;;9.55;100.00;96679.78;5051049;28;20541;-57
2024/02/11 11:17:05;;;;;;;6.70;2.83;;;;;;;9.40;100.00;96665.00;5047551;28;20024;-58
2024/02/11 11:19:32;;;;;;;8.20;3.10;;;;;;;9.65;100.00;96678.03;5053777;28;20346;-58
2024/02/11 11:21:58;;;;;;;5.03;2.30;;;;;;;9.62;100.00;96665.03;5050820;28;20024;-58
2024/02/11 11:24:24;;;;;;;7.30;2.13;;;;;;;9.92;100.00;96662.97;5059065;28;20116;-58
2024/02/11 11:26:55;;;;;;;5.32;2.80;;;;;;;10.11;100.00;96656.16;5057582;28;20111;-62
2024/02/11 11:29:32;;;;;;;4.13;2.20;;;;;;;10.47;100.00;96667.41;5046309;28;20033;-61